Milton, PA (17847)

10:11 PM EDT del 27 Agosto 2016 (GMT -0400)
NE corner of vineyard | | Change Station

Alt. 0 ft 41.00 °N, 76.89 °W | Updated 12 seconds ago

Clear
Sereno
71.7 °F
Sembra 71 °F
N
1.4
Vento Variabile Vento da NNO
Gusts 2.0 mph

Oggi
Massima -- | Minima -- °F
--% Possibilità di precip.
Ieri
Massima -- | Minima -- °F
Precip. -- in
Pressione 30.20 in
Visibilità 10.0 miglia
Nuvole Sereno
Indice di calore 71 °F
Punto di rugiada 66 °F
Umidità 85%
Piovosità 0.00 in
Spessore del manto nevoso Non disponibile.
6:29 AM 7:47 PM
Luna calante, 19% visible
METAR KSEG 280153Z AUTO 00000KT 10SM CLR 21/21 A3020 RMK AO2 SLP225 T02060206
Pressione 30.20 in
Visibilità 10.0 miglia
Nuvole Sereno
Indice di calore 71 °F
Punto di rugiada 66 °F
Umidità 85%
Piovosità 0.00 in
Spessore del manto nevoso Non disponibile.
6:29 AM 7:47 PM
Luna calante, 19% visible
METAR KSEG 280153Z AUTO 00000KT 10SM CLR 21/21 A3020 RMK AO2 SLP225 T02060206

10-Day Weather Forecast

Almanac

Astronomia

Aug. 27, 2016 Alba Tramonto
Ora attuale
Crepuscolo civile
Crepuscolo nautico
Crepuscolo astronomico
Luna
Estensione della luce visibile
Lunghezza del giorno
Tomorrow will be .
, % of the Moon is Illuminated

Gli estremi di oggi

State Highs State Lows

Community

WunderPhotos

Upload Photos

1,935,493 foto caricate!

WunderBlog® & News

Nearby

Qualità dell'aria

  Qualità dell'aria Indice AQ Inquinante
Not available.

Profondità neve

Stazione Profondità Altitudine

Attività sismica

Città  Distanza Mag. Data & Ora
Minimo Magnitudo Mostrato è 2.5.

Temperature delle acque costiere

Località Temperatura

Stations

Stazioni meteo nelle vicinanze

Ubicazione della stazione Temp. Raffreddamento del vento Punto di rugiada Umidità Vento Precip. Alt. Aggiornato Tipo
                   

Watches & Warnings

There are currently no watches in effect.